createdAt,value
2022-10-18T00:00:55.294Z,100.00
2022-10-18T00:05:58.231Z,100.00
2022-10-18T00:11:00.142Z,100.00
2022-10-18T00:16:04.554Z,100.00
2022-10-18T00:21:10.648Z,100.00
2022-10-18T00:26:17.064Z,100.00
2022-10-18T00:31:21.836Z,100.00
2022-10-18T00:36:24.960Z,100.00
2022-10-18T00:41:29.632Z,100.00
2022-10-18T00:46:36.491Z,100.00
2022-10-18T00:51:44.226Z,100.00
2022-10-18T00:56:46.480Z,100.00
2022-10-18T01:01:48.162Z,100.00
2022-10-18T01:07:10.778Z,100.00
2022-10-18T01:12:43.187Z,100.00
2022-10-18T01:18:11.028Z,100.00
2022-10-18T01:23:24.803Z,100.00
2022-10-18T01:33:37.043Z,100.00
2022-10-18T01:38:41.148Z,100.00
2022-10-18T01:43:48.573Z,100.00
2022-10-18T01:48:58.931Z,100.00
2022-10-18T01:54:01.320Z,100.00
2022-10-18T01:59:41.494Z,100.00
2022-10-18T02:05:14.884Z,100.00
2022-10-18T02:10:16.720Z,100.00
2022-10-18T02:15:24.678Z,100.00
2022-10-18T02:20:42.200Z,100.00
2022-10-18T02:25:50.346Z,100.00
2022-10-18T02:31:27.882Z,100.00
2022-10-18T02:36:46.620Z,100.00
2022-10-18T02:41:52.692Z,100.00
2022-10-18T02:46:56.610Z,100.00
2022-10-18T02:51:59.342Z,100.00
2022-10-18T02:57:07.218Z,100.00
2022-10-18T03:07:32.135Z,100.00
2022-10-18T03:12:36.744Z,100.00
2022-10-18T03:17:38.960Z,100.00
2022-10-18T03:22:43.206Z,100.00
2022-10-18T03:27:48.617Z,100.00
2022-10-18T03:33:14.853Z,100.00
2022-10-18T03:38:17.966Z,100.00
2022-10-18T03:43:24.718Z,100.00
2022-10-18T03:48:33.423Z,100.00
2022-10-18T03:53:36.024Z,100.00
2022-10-18T03:58:39.153Z,100.00
2022-10-18T04:03:44.635Z,100.00
2022-10-18T04:08:47.620Z,100.00
2022-10-18T04:14:23.347Z,100.00
2022-10-18T04:19:30.414Z,100.00
2022-10-18T04:24:33.402Z,100.00
2022-10-18T04:29:47.587Z,100.00
2022-10-18T04:34:53.483Z,100.00
2022-10-18T04:39:56.353Z,100.00
2022-10-18T04:44:58.827Z,100.00
2022-10-18T04:50:04.027Z,100.00
2022-10-18T04:55:09.662Z,100.00
2022-10-18T05:00:12.368Z,100.00
2022-10-18T05:05:16.138Z,100.00
2022-10-18T05:10:32.050Z,100.00
2022-10-18T05:15:39.704Z,100.00
2022-10-18T05:20:41.645Z,100.00
2022-10-18T05:26:01.178Z,100.00
2022-10-18T05:31:09.243Z,100.00
2022-10-18T05:36:12.270Z,100.00
2022-10-18T05:41:15.084Z,100.00
2022-10-18T05:46:19.654Z,100.00
2022-10-18T05:51:21.900Z,100.00
2022-10-18T05:56:23.875Z,100.00
2022-10-18T06:01:33.660Z,100.00
2022-10-18T06:06:41.190Z,100.00
2022-10-18T06:11:43.868Z,100.00
2022-10-18T06:16:45.633Z,100.00
2022-10-18T06:21:54.653Z,100.00
2022-10-18T06:26:57.982Z,100.00
2022-10-18T06:32:00.673Z,100.00
2022-10-18T06:37:03.112Z,100.00
2022-10-18T06:42:04.930Z,100.00
2022-10-18T06:47:14.152Z,100.00
2022-10-18T06:52:20.914Z,100.00
2022-10-18T06:57:22.600Z,100.00
2022-10-18T07:02:24.237Z,100.00
2022-10-18T07:07:25.998Z,100.00
2022-10-18T07:12:28.912Z,100.00
2022-10-18T07:17:32.122Z,100.00
2022-10-18T07:22:34.195Z,100.00
2022-10-18T07:27:40.539Z,100.00
2022-10-18T07:32:44.974Z,100.00
2022-10-18T07:37:46.950Z,100.00
2022-10-18T07:42:48.702Z,100.00
2022-10-18T07:47:57.564Z,100.00
2022-10-18T07:52:59.294Z,100.00
2022-10-18T07:58:01.320Z,100.00
2022-10-18T08:03:03.316Z,100.00
2022-10-18T08:08:16.401Z,100.00
2022-10-18T08:13:25.055Z,100.00
2022-10-18T08:18:28.879Z,100.00
2022-10-18T08:23:33.940Z,100.00
2022-10-18T08:28:53.737Z,100.00
2022-10-18T08:39:42.628Z,100.00
2022-10-18T08:45:37.409Z,100.00
2022-10-18T08:51:11.425Z,100.00
2022-10-18T08:56:27.791Z,100.00
2022-10-18T09:02:07.497Z,100.00
2022-10-18T09:07:41.137Z,100.00
2022-10-18T09:13:02.521Z,100.00
2022-10-18T09:18:37.563Z,100.00
2022-10-18T09:23:50.416Z,100.00
2022-10-18T09:29:36.097Z,100.00
2022-10-18T09:34:44.628Z,100.00
2022-10-18T09:40:12.180Z,100.00
2022-10-18T09:45:28.781Z,99.75
2022-10-18T09:50:42.303Z,99.41
2022-10-18T09:55:55.786Z,98.83
2022-10-18T10:00:59.469Z,98.08
2022-10-18T10:06:14.957Z,97.19
2022-10-18T10:11:45.403Z,96.67
2022-10-18T10:16:51.353Z,95.74
2022-10-18T10:22:14.540Z,93.94
2022-10-18T10:27:45.107Z,92.31
2022-10-18T10:32:58.425Z,91.85
2022-10-18T10:38:08.561Z,91.60
2022-10-18T10:43:38.198Z,91.57
2022-10-18T11:03:05.903Z,87.00
2022-10-18T11:08:47.677Z,86.24
2022-10-18T11:20:01.993Z,84.58
2022-10-18T11:25:36.708Z,83.55
2022-10-18T11:30:59.124Z,83.03
2022-10-18T11:36:16.273Z,82.00
2022-10-18T11:41:44.540Z,81.01
2022-10-18T11:47:12.269Z,80.20
2022-10-18T11:52:25.015Z,79.31
2022-10-18T11:57:38.799Z,78.88
2022-10-18T12:02:58.925Z,77.87
2022-10-18T12:08:09.873Z,77.06
2022-10-18T12:13:19.124Z,75.33
2022-10-18T12:18:25.899Z,74.28
2022-10-18T12:23:36.589Z,73.37
2022-10-18T12:28:46.140Z,73.03
2022-10-18T12:33:51.815Z,73.25
2022-10-18T12:39:09.262Z,73.42
2022-10-18T12:44:27.524Z,73.17
2022-10-18T12:49:32.248Z,73.13
2022-10-18T12:54:39.299Z,71.44
2022-10-18T12:59:42.031Z,70.28
2022-10-18T13:04:45.267Z,69.88
2022-10-18T13:10:15.406Z,69.23
2022-10-18T13:15:35.316Z,69.82
2022-10-18T13:20:36.801Z,70.14
2022-10-18T13:25:47.533Z,69.84
2022-10-18T13:30:51.849Z,70.25
2022-10-18T13:35:58.814Z,70.39
2022-10-18T13:41:02.711Z,70.08
2022-10-18T13:46:04.368Z,69.90
2022-10-18T13:51:27.353Z,70.22
2022-10-18T13:56:56.717Z,70.87
2022-10-18T14:02:15.061Z,71.42
2022-10-18T14:07:19.460Z,72.14
2022-10-18T14:12:28.635Z,73.32
2022-10-18T14:17:42.896Z,73.50
2022-10-18T14:23:11.748Z,73.45
2022-10-18T14:28:17.795Z,74.03
2022-10-18T14:33:32.584Z,74.16
2022-10-18T14:38:36.302Z,73.99
2022-10-18T14:43:37.812Z,74.54
2022-10-18T14:48:39.323Z,74.46
2022-10-18T14:53:41.867Z,74.54
2022-10-18T14:58:43.662Z,75.03
2022-10-18T15:03:46.711Z,75.17
2022-10-18T15:08:54.452Z,75.66
2022-10-18T15:13:57.778Z,76.39
2022-10-18T15:19:22.080Z,76.79
2022-10-18T15:24:26.539Z,77.33
2022-10-18T15:29:33.186Z,78.03
2022-10-18T15:34:35.678Z,78.28
2022-10-18T15:39:37.184Z,78.51
2022-10-18T15:44:51.170Z,78.96
2022-10-18T15:49:58.301Z,79.17
2022-10-18T15:55:01.279Z,79.27
2022-10-18T16:00:07.980Z,79.47
2022-10-18T16:05:20.701Z,79.75
2022-10-18T16:10:22.290Z,80.05
2022-10-18T16:15:24.076Z,80.35
2022-10-18T16:20:26.954Z,80.67
2022-10-18T16:25:28.567Z,80.99
2022-10-18T16:30:32.477Z,81.31
2022-10-18T16:35:35.646Z,81.66
2022-10-18T16:40:52.691Z,82.10
2022-10-18T16:45:54.784Z,82.31
2022-10-18T16:50:57.246Z,82.73
2022-10-18T16:56:01.065Z,83.07
2022-10-18T17:01:04.236Z,83.34
2022-10-18T17:06:29.461Z,83.48
2022-10-18T17:11:31.478Z,83.28
2022-10-18T17:16:36.711Z,83.79
2022-10-18T17:21:39.924Z,83.58
2022-10-18T17:26:41.742Z,84.20
2022-10-18T17:31:43.777Z,84.21
2022-10-18T17:36:46.658Z,84.36
2022-10-18T17:41:48.221Z,84.59
2022-10-18T17:46:50.449Z,85.12
2022-10-18T17:51:52.308Z,85.41
2022-10-18T17:56:55.238Z,85.59
2022-10-18T18:01:56.905Z,85.59
2022-10-18T18:06:59.881Z,85.74
2022-10-18T18:12:01.916Z,85.57
2022-10-18T18:17:03.825Z,84.92
2022-10-18T18:22:06.531Z,84.03
2022-10-18T18:27:08.797Z,83.47
2022-10-18T18:32:10.521Z,82.98
2022-10-18T18:37:12.212Z,82.47
2022-10-18T18:42:14.171Z,82.37
2022-10-18T18:47:16.132Z,82.37
2022-10-18T18:52:18.106Z,82.09
2022-10-18T18:57:19.704Z,82.42
2022-10-18T19:02:21.266Z,82.24
2022-10-18T19:07:23.547Z,82.49
2022-10-18T19:12:25.336Z,82.42
2022-10-18T19:17:26.905Z,82.60
2022-10-18T19:22:28.931Z,82.59
2022-10-18T19:27:31.085Z,83.21
2022-10-18T19:32:33.179Z,83.43
2022-10-18T19:37:35.079Z,83.53
2022-10-18T19:42:37.800Z,83.63
2022-10-18T19:47:41.248Z,83.64
2022-10-18T19:52:43.126Z,83.72
2022-10-18T19:57:44.617Z,83.79
2022-10-18T20:02:46.339Z,84.01
2022-10-18T20:07:48.072Z,84.05
2022-10-18T20:12:50.217Z,84.27
2022-10-18T20:17:51.835Z,84.29
2022-10-18T20:22:53.427Z,84.15
2022-10-18T20:27:55.044Z,84.14
2022-10-18T20:32:56.730Z,83.90
2022-10-18T20:37:58.378Z,83.91
2022-10-18T20:43:03.674Z,84.14
2022-10-18T20:48:05.662Z,84.28
2022-10-18T20:53:07.386Z,84.34
2022-10-18T20:58:10.943Z,84.42
2022-10-18T21:08:15.163Z,84.53
2022-10-18T21:13:17.010Z,84.50
2022-10-18T21:18:19.081Z,84.74
2022-10-18T21:23:21.255Z,84.25
2022-10-18T21:28:24.324Z,84.52
2022-10-18T21:33:26.238Z,84.62
2022-10-18T21:38:27.839Z,84.59
2022-10-18T21:43:29.438Z,84.54
2022-10-18T21:48:31.123Z,84.83
2022-10-18T21:53:33.016Z,85.14
2022-10-18T21:58:38.654Z,85.42
2022-10-18T22:03:40.429Z,85.61
2022-10-18T22:08:49.169Z,85.61
2022-10-18T22:13:52.832Z,86.35
2022-10-18T22:18:58.256Z,86.61
2022-10-18T22:24:03.078Z,87.23
2022-10-18T22:29:07.696Z,87.40
2022-10-18T22:34:18.751Z,87.84
2022-10-18T22:39:20.919Z,88.17
2022-10-18T22:44:22.688Z,88.46
2022-10-18T22:49:24.409Z,88.81
2022-10-18T22:54:26.335Z,89.07
2022-10-18T22:59:27.784Z,89.31
2022-10-18T23:04:29.305Z,89.67
2022-10-18T23:09:32.869Z,90.17
2022-10-18T23:14:34.762Z,90.10
2022-10-18T23:19:36.850Z,90.40
2022-10-18T23:24:38.469Z,90.81
2022-10-18T23:29:40.089Z,91.15
2022-10-18T23:34:42.119Z,91.13
2022-10-18T23:39:43.695Z,92.04
2022-10-18T23:44:45.386Z,92.31
2022-10-18T23:49:46.938Z,92.48
2022-10-18T23:54:48.603Z,92.67
2022-10-18T23:59:50.205Z,92.63
